createdAt,value
2019-01-25T00:00:51.934Z,60.23
2019-01-25T00:03:20.018Z,54.23
2019-01-25T00:05:48.589Z,56.57
2019-01-25T00:08:17.093Z,54.67
2019-01-25T00:10:45.546Z,58.27
2019-01-25T00:13:13.951Z,56.10
2019-01-25T00:18:36.490Z,57.23
2019-01-25T00:21:05.254Z,56.83
2019-01-25T00:23:33.678Z,60.17
2019-01-25T00:26:02.116Z,57.53
2019-01-25T00:28:30.598Z,59.83
2019-01-25T00:30:59.030Z,62.40
2019-01-25T00:33:27.468Z,59.93
2019-01-25T00:35:55.965Z,60.20
2019-01-25T00:38:24.414Z,57.80
2019-01-25T00:43:46.339Z,63.10
2019-01-25T00:46:14.805Z,60.70
2019-01-25T00:48:43.238Z,63.53
2019-01-25T00:51:11.751Z,60.90
2019-01-25T00:53:40.179Z,59.30
2019-01-25T00:56:08.610Z,62.57
2019-01-25T00:58:56.408Z,63.50
2019-01-25T01:01:24.930Z,62.47
2019-01-25T01:03:53.356Z,61.63
2019-01-25T01:06:21.907Z,62.60
2019-01-25T01:08:50.336Z,55.40
2019-01-25T01:11:18.751Z,61.43
2019-01-25T01:16:41.096Z,63.20
2019-01-25T01:19:09.521Z,62.20
2019-01-25T01:21:37.949Z,60.67
2019-01-25T01:24:06.587Z,63.93
2019-01-25T01:26:35.016Z,63.77
2019-01-25T01:29:03.435Z,63.80
2019-01-25T01:31:32.019Z,62.37
2019-01-25T01:34:00.454Z,64.73
2019-01-25T01:36:28.896Z,65.73
2019-01-25T01:38:57.462Z,65.23
2019-01-25T01:41:25.900Z,64.73
2019-01-25T01:43:54.339Z,61.97
2019-01-25T01:46:22.953Z,60.23
2019-01-25T01:48:51.381Z,60.70
2019-01-25T01:51:39.282Z,59.13
2019-01-25T01:54:07.720Z,62.07
2019-01-25T01:56:36.138Z,63.07
2019-01-25T01:59:04.638Z,63.17
2019-01-25T02:01:33.084Z,63.13
2019-01-25T02:04:01.516Z,65.33
2019-01-25T02:06:30.200Z,63.17
2019-01-25T02:08:58.711Z,62.07
2019-01-25T02:11:27.134Z,60.63
2019-01-25T02:13:55.653Z,59.17
2019-01-25T02:16:24.098Z,57.97
2019-01-25T02:18:52.564Z,58.60
2019-01-25T02:21:21.119Z,59.63
2019-01-25T02:23:49.565Z,58.27
2019-01-25T02:26:17.975Z,62.90
2019-01-25T02:28:46.438Z,60.77
2019-01-25T02:31:14.854Z,56.53
2019-01-25T02:33:43.284Z,59.17
2019-01-25T02:36:11.918Z,63.83
2019-01-25T02:38:40.343Z,59.77
2019-01-25T02:41:08.778Z,63.37
2019-01-25T02:43:37.390Z,64.53
2019-01-25T02:46:05.823Z,62.10
2019-01-25T02:48:34.354Z,62.03
2019-01-25T02:51:02.787Z,69.03
2019-01-25T02:53:31.276Z,61.83
2019-01-25T02:55:59.706Z,66.77
2019-01-25T02:58:28.327Z,61.47
2019-01-25T03:00:56.768Z,61.57
2019-01-25T03:03:25.220Z,59.43
2019-01-25T03:05:53.848Z,65.87
2019-01-25T03:08:22.289Z,58.60
2019-01-25T03:10:50.702Z,60.97
2019-01-25T03:13:19.145Z,61.63
2019-01-25T03:15:47.712Z,59.37
2019-01-25T03:18:16.160Z,58.90
2019-01-25T03:20:44.780Z,59.07
2019-01-25T03:23:13.214Z,58.67
2019-01-25T03:25:41.653Z,63.53
2019-01-25T03:28:10.428Z,58.67
2019-01-25T03:30:38.851Z,61.10
2019-01-25T03:33:07.267Z,57.50
2019-01-25T03:35:35.914Z,61.73
2019-01-25T03:38:04.589Z,66.93
2019-01-25T03:40:32.998Z,60.90
2019-01-25T03:43:01.737Z,55.70
2019-01-25T03:45:30.147Z,56.93
2019-01-25T03:47:58.642Z,57.00
2019-01-25T03:50:28.851Z,57.00
2019-01-25T03:52:57.527Z,56.73
2019-01-25T03:55:26.721Z,56.20
2019-01-25T03:57:55.433Z,58.20
2019-01-25T04:00:29.038Z,57.13
2019-01-25T04:02:57.834Z,59.40
2019-01-25T04:05:26.333Z,55.17
2019-01-25T04:07:54.814Z,56.53
2019-01-25T04:10:26.345Z,55.17
2019-01-25T04:12:54.916Z,58.13
2019-01-25T04:15:25.973Z,54.07
2019-01-25T04:17:54.463Z,54.87
2019-01-25T04:20:23.878Z,55.10
2019-01-25T04:22:52.792Z,53.13
2019-01-25T04:25:22.911Z,50.10
2019-01-25T04:27:51.761Z,49.43
2019-01-25T04:30:22.801Z,55.07
2019-01-25T04:32:51.414Z,53.30
2019-01-25T04:35:19.914Z,50.47
2019-01-25T04:37:48.335Z,49.27
2019-01-25T04:40:18.216Z,54.50
2019-01-25T04:42:46.718Z,52.77
2019-01-25T04:45:19.879Z,54.20
2019-01-25T04:47:48.519Z,51.57
2019-01-25T04:50:19.494Z,51.63
2019-01-25T04:52:48.125Z,51.47
2019-01-25T04:55:19.770Z,49.47
2019-01-25T04:57:48.765Z,53.70
2019-01-25T05:00:19.627Z,49.90
2019-01-25T05:02:53.945Z,45.97
2019-01-25T05:05:22.534Z,45.20
2019-01-25T05:07:51.617Z,47.37
2019-01-25T05:10:20.178Z,44.57
2019-01-25T05:12:53.269Z,43.87
2019-01-25T05:15:21.758Z,44.70
2019-01-25T05:17:54.734Z,43.53
2019-01-25T05:20:23.238Z,44.67
2019-01-25T05:22:59.236Z,45.40
2019-01-25T05:25:28.605Z,44.23
2019-01-25T05:27:57.168Z,45.97
2019-01-25T05:30:26.874Z,43.63
2019-01-25T05:32:55.388Z,43.10
2019-01-25T05:35:23.811Z,44.10
2019-01-25T05:37:52.440Z,41.90
2019-01-25T05:40:25.918Z,42.53
2019-01-25T05:42:54.411Z,42.23
2019-01-25T05:45:22.905Z,43.13
2019-01-25T05:47:51.351Z,44.73
2019-01-25T05:50:19.953Z,45.70
2019-01-25T05:52:48.430Z,48.13
2019-01-25T05:55:18.947Z,46.17
2019-01-25T05:57:47.474Z,46.10
2019-01-25T06:00:17.771Z,48.30
2019-01-25T06:02:46.198Z,45.90
2019-01-25T06:05:15.264Z,48.47
2019-01-25T06:07:44.120Z,43.50
2019-01-25T06:10:13.369Z,49.67
2019-01-25T06:12:41.876Z,46.00
2019-01-25T06:15:13.941Z,48.53
2019-01-25T06:17:42.406Z,50.40
2019-01-25T06:20:12.389Z,47.07
2019-01-25T06:22:40.798Z,46.23
2019-01-25T06:25:09.418Z,48.60
2019-01-25T06:27:39.650Z,46.37
2019-01-25T06:30:11.157Z,48.63
2019-01-25T06:32:39.879Z,47.67
2019-01-25T06:35:10.242Z,46.33
2019-01-25T06:37:38.756Z,51.33
2019-01-25T06:40:12.645Z,49.03
2019-01-25T06:42:41.056Z,47.70
2019-01-25T06:45:11.737Z,45.97
2019-01-25T06:47:40.392Z,50.07
2019-01-25T06:50:11.232Z,50.70
2019-01-25T06:52:39.657Z,49.73
2019-01-25T06:55:08.934Z,50.93
2019-01-25T06:57:54.041Z,50.43
2019-01-25T07:00:26.763Z,50.47
2019-01-25T07:02:55.171Z,50.93
2019-01-25T07:05:23.604Z,49.83
2019-01-25T07:07:52.205Z,46.03
2019-01-25T07:10:20.959Z,50.57
2019-01-25T07:12:49.398Z,49.87
2019-01-25T07:15:20.044Z,49.03
2019-01-25T07:17:48.466Z,54.40
2019-01-25T07:20:17.727Z,53.00
2019-01-25T07:22:46.334Z,47.93
2019-01-25T07:25:15.690Z,55.40
2019-01-25T07:27:44.124Z,52.30
2019-01-25T07:30:15.069Z,58.20
2019-01-25T07:32:43.652Z,50.50
2019-01-25T07:35:12.276Z,48.90
2019-01-25T07:37:41.012Z,50.80
2019-01-25T07:40:10.749Z,50.07
2019-01-25T07:42:39.232Z,53.53
2019-01-25T07:45:12.844Z,51.90
2019-01-25T07:47:41.303Z,53.73
2019-01-25T07:50:11.502Z,50.73
2019-01-25T07:52:39.974Z,50.57
2019-01-25T07:55:10.270Z,52.47
2019-01-25T07:57:39.071Z,52.20
2019-01-25T08:00:13.255Z,53.63
2019-01-25T08:02:41.685Z,52.10
2019-01-25T08:05:10.952Z,51.70
2019-01-25T08:07:39.552Z,54.93
2019-01-25T08:10:11.215Z,53.80
2019-01-25T08:12:39.730Z,50.57
2019-01-25T08:15:11.290Z,53.33
2019-01-25T08:17:39.774Z,52.07
2019-01-25T08:20:10.852Z,54.83
2019-01-25T08:22:39.431Z,52.43
2019-01-25T08:25:09.000Z,51.20
2019-01-25T08:27:37.629Z,51.73
2019-01-25T08:30:12.068Z,52.37
2019-01-25T08:32:40.594Z,51.77
2019-01-25T08:35:11.418Z,57.30
2019-01-25T08:37:39.858Z,51.03
2019-01-25T08:40:13.287Z,52.80
2019-01-25T08:42:42.089Z,53.17
2019-01-25T08:45:15.303Z,48.70
2019-01-25T08:47:43.821Z,51.20
2019-01-25T08:50:26.010Z,53.00
2019-01-25T08:52:54.498Z,54.20
2019-01-25T08:55:23.053Z,50.47
2019-01-25T08:57:51.715Z,51.70
2019-01-25T09:00:25.553Z,46.07
2019-01-25T09:02:54.230Z,50.93
2019-01-25T09:05:22.948Z,51.23
2019-01-25T09:07:51.382Z,47.07
2019-01-25T09:10:21.599Z,48.50
2019-01-25T09:12:50.130Z,50.90
2019-01-25T09:15:22.562Z,49.37
2019-01-25T09:17:51.294Z,46.87
2019-01-25T09:20:21.698Z,44.17
2019-01-25T09:22:50.193Z,50.37
2019-01-25T09:25:18.693Z,46.23
2019-01-25T09:27:47.819Z,41.60
2019-01-25T09:30:24.362Z,45.00
2019-01-25T09:32:52.927Z,45.95
2019-01-25T09:35:21.427Z,42.53
2019-01-25T09:37:50.115Z,45.43
2019-01-25T09:40:22.650Z,44.87
2019-01-25T09:42:51.500Z,43.37
2019-01-25T09:45:20.069Z,43.83
2019-01-25T09:47:48.539Z,44.77
2019-01-25T09:50:18.967Z,41.50
2019-01-25T09:52:47.453Z,44.47
2019-01-25T09:55:18.158Z,43.37
2019-01-25T09:57:47.081Z,42.60
2019-01-25T10:00:24.517Z,44.73
2019-01-25T10:02:52.966Z,45.03
2019-01-25T10:05:21.390Z,45.20
2019-01-25T10:07:49.844Z,45.13
2019-01-25T10:10:18.558Z,43.13
2019-01-25T10:12:47.047Z,43.10
2019-01-25T10:15:27.211Z,41.83
2019-01-25T10:17:55.645Z,40.10
2019-01-25T10:20:24.511Z,39.77
2019-01-25T10:22:53.272Z,45.08
2019-01-25T10:25:21.835Z,42.50
2019-01-25T10:27:50.246Z,41.28
2019-01-25T10:30:28.811Z,39.23
2019-01-25T10:32:57.248Z,42.00
2019-01-25T10:35:26.013Z,41.23
2019-01-25T10:37:54.717Z,39.47
2019-01-25T10:40:23.693Z,41.87
2019-01-25T10:42:53.354Z,38.97
2019-01-25T10:45:28.420Z,39.48
2019-01-25T10:47:56.918Z,37.00
2019-01-25T10:50:25.335Z,38.97
2019-01-25T10:52:53.851Z,37.60
2019-01-25T10:55:22.423Z,38.30
2019-01-25T10:57:51.211Z,39.53
2019-01-25T11:00:20.970Z,38.73
2019-01-25T11:02:49.393Z,37.67
2019-01-25T11:05:20.533Z,37.83
2019-01-25T11:07:48.963Z,40.27
2019-01-25T11:10:17.402Z,38.90
2019-01-25T11:12:46.029Z,39.00
2019-01-25T11:15:19.511Z,39.17
2019-01-25T11:17:48.541Z,38.83
2019-01-25T11:20:19.667Z,37.80
2019-01-25T11:22:48.150Z,35.78
2019-01-25T11:25:34.230Z,37.00
2019-01-25T11:28:02.688Z,41.58
2019-01-25T11:30:31.100Z,36.77
2019-01-25T11:32:59.742Z,41.33
2019-01-25T11:35:28.158Z,38.17
2019-01-25T11:37:56.576Z,41.27
2019-01-25T11:40:33.614Z,39.37
2019-01-25T11:43:08.575Z,36.87
2019-01-25T11:45:32.259Z,39.67
2019-01-25T11:48:00.850Z,37.40
2019-01-25T11:50:29.283Z,37.53
2019-01-25T11:52:57.724Z,36.63
2019-01-25T11:55:26.206Z,32.23
2019-01-25T11:57:55.633Z,35.83
2019-01-25T12:00:26.659Z,33.33
2019-01-25T12:02:55.167Z,36.00
2019-01-25T12:05:24.987Z,35.23
2019-01-25T12:07:54.454Z,35.63
2019-01-25T12:10:28.141Z,35.53
2019-01-25T12:12:56.658Z,35.27
2019-01-25T12:15:25.084Z,36.13
2019-01-25T12:17:53.590Z,35.83
2019-01-25T12:20:31.685Z,35.90
2019-01-25T12:23:00.186Z,38.37
2019-01-25T12:25:28.683Z,35.17
2019-01-25T12:27:57.243Z,39.10
2019-01-25T12:30:30.711Z,37.07
2019-01-25T12:32:59.149Z,34.33
2019-01-25T12:35:30.186Z,40.20
2019-01-25T12:37:58.612Z,37.27
2019-01-25T12:40:27.046Z,38.50
2019-01-25T12:42:55.718Z,37.57
2019-01-25T12:45:28.776Z,38.53
2019-01-25T12:47:57.382Z,39.20
2019-01-25T12:50:28.550Z,38.10
2019-01-25T12:52:57.305Z,36.37
2019-01-25T12:55:25.735Z,37.40
2019-01-25T12:57:54.502Z,38.07
2019-01-25T13:00:25.580Z,38.30
2019-01-25T13:02:54.082Z,36.80
2019-01-25T13:05:23.262Z,37.83
2019-01-25T13:07:51.762Z,36.40
2019-01-25T13:10:22.739Z,35.97
2019-01-25T13:12:51.264Z,38.20
2019-01-25T13:15:19.753Z,34.40
2019-01-25T13:17:48.178Z,31.73
2019-01-25T13:20:21.834Z,31.17
2019-01-25T13:22:50.268Z,33.20
2019-01-25T13:25:18.749Z,30.63
2019-01-25T13:27:47.497Z,26.33
2019-01-25T13:30:26.987Z,27.80
2019-01-25T13:32:55.570Z,28.30
2019-01-25T13:35:24.233Z,25.60
2019-01-25T13:37:52.781Z,28.30
2019-01-25T13:40:23.219Z,25.80
2019-01-25T13:42:51.783Z,27.90
2019-01-25T13:45:21.646Z,25.90
2019-01-25T13:47:50.433Z,29.50
2019-01-25T13:50:24.447Z,26.03
2019-01-25T13:52:52.867Z,26.57
2019-01-25T13:55:21.550Z,27.93
2019-01-25T13:57:50.050Z,28.53
2019-01-25T14:00:30.320Z,28.13
2019-01-25T14:02:58.800Z,29.53
2019-01-25T14:05:27.300Z,28.80
2019-01-25T14:07:55.957Z,26.87
2019-01-25T14:10:27.196Z,29.70
2019-01-25T14:12:55.648Z,25.30
2019-01-25T14:15:24.113Z,26.93
2019-01-25T14:17:52.596Z,28.13
2019-01-25T14:20:23.757Z,28.60
2019-01-25T14:22:52.290Z,26.80
2019-01-25T14:25:20.862Z,27.20
2019-01-25T14:27:49.279Z,27.70
2019-01-25T14:30:23.931Z,26.83
2019-01-25T14:32:52.366Z,26.10
2019-01-25T14:35:20.881Z,25.70
2019-01-25T14:37:49.621Z,26.53
2019-01-25T14:40:18.210Z,24.20
2019-01-25T14:42:46.642Z,24.50
2019-01-25T14:45:20.220Z,24.53
2019-01-25T14:47:48.847Z,22.87
2019-01-25T14:50:19.632Z,23.27
2019-01-25T14:52:48.090Z,24.27
2019-01-25T14:55:16.526Z,25.10
2019-01-25T14:57:44.959Z,25.77
2019-01-25T15:00:13.894Z,25.03
2019-01-25T15:02:42.459Z,26.00
2019-01-25T15:05:16.809Z,26.63
2019-01-25T15:07:45.421Z,26.80
2019-01-25T15:10:16.092Z,27.57
2019-01-25T15:12:44.790Z,26.37
2019-01-25T15:15:14.571Z,28.00
2019-01-25T15:17:42.999Z,26.27
2019-01-25T15:20:23.587Z,25.40
2019-01-25T15:22:52.022Z,26.40
2019-01-25T15:25:20.458Z,25.33
2019-01-25T15:27:49.141Z,26.57
2019-01-25T15:30:20.388Z,26.50
2019-01-25T15:32:48.949Z,26.43
2019-01-25T15:35:19.366Z,26.27
2019-01-25T15:37:47.855Z,25.57
2019-01-25T15:40:18.336Z,27.20
2019-01-25T15:42:46.885Z,27.57
2019-01-25T15:45:17.268Z,24.67
2019-01-25T15:47:45.840Z,27.60
2019-01-25T15:50:17.426Z,25.63
2019-01-25T15:52:45.875Z,29.03
2019-01-25T15:55:14.555Z,28.23
2019-01-25T15:57:43.024Z,30.17
2019-01-25T16:00:17.068Z,31.30
2019-01-25T16:02:45.560Z,31.87
2019-01-25T16:05:16.692Z,31.23
2019-01-25T16:07:45.182Z,32.83
2019-01-25T16:10:18.574Z,27.83
2019-01-25T16:12:47.234Z,31.67
2019-01-25T16:15:23.371Z,31.90
2019-01-25T16:17:51.893Z,32.33
2019-01-25T16:20:20.409Z,31.33
2019-01-25T16:22:50.465Z,32.63
2019-01-25T16:25:21.420Z,30.33
2019-01-25T16:27:49.954Z,30.40
2019-01-25T16:30:23.663Z,32.63
2019-01-25T16:32:52.192Z,32.40
2019-01-25T16:35:20.834Z,33.17
2019-01-25T16:37:49.336Z,32.67
2019-01-25T16:40:20.222Z,34.40
2019-01-25T16:42:48.797Z,31.60
2019-01-25T16:45:19.849Z,30.97
2019-01-25T16:47:48.435Z,32.17
2019-01-25T16:50:23.647Z,29.90
2019-01-25T16:52:47.445Z,29.80
2019-01-25T16:55:16.337Z,30.47
2019-01-25T16:57:44.795Z,32.27
2019-01-25T17:00:22.174Z,33.23
2019-01-25T17:02:50.891Z,29.70
2019-01-25T17:05:19.611Z,32.83
2019-01-25T17:07:48.278Z,34.07
2019-01-25T17:10:17.256Z,34.20
2019-01-25T17:16:17.871Z,34.13
2019-01-25T17:19:05.812Z,33.13
2019-01-25T17:21:34.717Z,35.20
2019-01-25T17:24:03.421Z,31.43
2019-01-25T17:26:51.290Z,32.13
2019-01-25T17:29:21.337Z,31.63
2019-01-25T17:31:51.142Z,31.70
2019-01-25T17:34:39.681Z,36.23
2019-01-25T17:37:09.286Z,32.87
2019-01-25T17:39:38.586Z,32.43
2019-01-25T17:42:07.955Z,33.40
2019-01-25T17:44:41.263Z,35.17
2019-01-25T17:47:07.623Z,30.60
2019-01-25T17:49:36.651Z,33.43
2019-01-25T17:52:05.424Z,31.03
2019-01-25T17:54:34.380Z,36.27
2019-01-25T17:59:42.866Z,30.03
2019-01-25T18:02:11.957Z,31.23
2019-01-25T18:04:41.112Z,30.73
2019-01-25T18:07:10.170Z,30.63
2019-01-25T18:09:39.417Z,31.47
2019-01-25T18:12:08.650Z,31.47
2019-01-25T18:14:37.826Z,29.87
2019-01-25T18:17:07.125Z,34.83
2019-01-25T18:19:36.756Z,30.87
2019-01-25T18:22:06.870Z,32.30
2019-01-25T18:24:36.171Z,32.17
2019-01-25T18:27:05.882Z,29.43
2019-01-25T18:29:35.406Z,29.57
2019-01-25T18:32:05.233Z,31.57
2019-01-25T18:34:34.940Z,29.30
2019-01-25T18:37:04.866Z,31.60
2019-01-25T18:39:34.762Z,30.83
2019-01-25T18:42:04.297Z,32.73
2019-01-25T18:44:33.822Z,30.08
2019-01-25T18:47:03.051Z,32.40
2019-01-25T18:49:32.627Z,29.80
2019-01-25T18:52:02.242Z,30.33
2019-01-25T18:54:31.886Z,31.87
2019-01-25T18:57:01.742Z,32.67
2019-01-25T18:59:32.186Z,30.83
2019-01-25T19:02:02.122Z,28.33
2019-01-25T19:04:31.881Z,30.57
2019-01-25T19:07:02.198Z,32.83
2019-01-25T19:09:31.866Z,31.20
2019-01-25T19:12:01.684Z,28.57
2019-01-25T19:14:31.271Z,34.17
2019-01-25T19:17:19.658Z,30.30
2019-01-25T19:19:49.670Z,33.17
2019-01-25T19:22:19.937Z,31.68
2019-01-25T19:24:49.751Z,30.80
2019-01-25T19:27:19.767Z,30.87
2019-01-25T19:29:49.499Z,31.13
2019-01-25T19:32:19.715Z,31.47
2019-01-25T19:34:49.609Z,30.75
2019-01-25T19:37:19.544Z,33.53
2019-01-25T19:39:49.305Z,28.93
2019-01-25T19:42:19.281Z,30.37
2019-01-25T19:44:49.366Z,29.90
2019-01-25T19:47:19.204Z,29.70
2019-01-25T19:49:49.012Z,28.50
2019-01-25T19:52:19.118Z,30.13
2019-01-25T19:54:49.422Z,29.70
2019-01-25T19:57:19.451Z,29.93
2019-01-25T19:59:49.841Z,28.83
2019-01-25T20:02:19.672Z,32.37
2019-01-25T20:04:49.713Z,30.70
2019-01-25T20:07:19.590Z,28.00
2019-01-25T20:09:49.576Z,30.37
2019-01-25T20:12:19.918Z,32.17
2019-01-25T20:14:50.022Z,29.67
2019-01-25T20:17:20.318Z,27.57
2019-01-25T20:19:50.358Z,26.70
2019-01-25T20:22:20.641Z,28.03
2019-01-25T20:24:50.178Z,31.17
2019-01-25T20:27:19.049Z,30.02
2019-01-25T20:29:47.883Z,32.33
2019-01-25T20:32:16.922Z,31.83
2019-01-25T20:34:46.107Z,30.77
2019-01-25T20:37:14.947Z,31.90
2019-01-25T20:39:43.916Z,32.80
2019-01-25T20:42:13.127Z,31.17
2019-01-25T20:44:41.981Z,31.40
2019-01-25T20:47:10.973Z,31.63
2019-01-25T20:49:40.051Z,31.10
2019-01-25T20:52:08.793Z,31.45
2019-01-25T20:54:37.646Z,32.00
2019-01-25T20:57:06.514Z,34.00
2019-01-25T20:59:35.412Z,31.87
2019-01-25T21:02:04.294Z,29.47
2019-01-25T21:04:33.608Z,30.67
2019-01-25T21:07:02.362Z,31.60
2019-01-25T21:09:31.187Z,30.83
2019-01-25T21:11:59.944Z,32.30
2019-01-25T21:14:29.554Z,34.80
2019-01-25T21:16:59.512Z,29.30
2019-01-25T21:19:29.653Z,32.10
2019-01-25T21:21:59.807Z,32.43
2019-01-25T21:24:29.533Z,32.90
2019-01-25T21:26:59.364Z,31.73
2019-01-25T21:29:29.116Z,30.43
2019-01-25T21:31:58.798Z,32.13
2019-01-25T21:34:28.598Z,30.10
2019-01-25T21:36:58.711Z,30.97
2019-01-25T21:39:28.374Z,29.55
2019-01-25T21:41:58.401Z,30.27
2019-01-25T21:44:28.227Z,30.70
2019-01-25T21:46:57.811Z,30.23
2019-01-25T21:49:27.338Z,30.23
2019-01-25T21:51:56.596Z,30.90
2019-01-25T21:54:25.685Z,33.87
2019-01-25T21:56:54.774Z,35.03
2019-01-25T21:59:23.843Z,30.77
2019-01-25T22:01:53.024Z,34.10
2019-01-25T22:04:23.350Z,31.30
2019-01-25T22:06:52.517Z,33.30
2019-01-25T22:09:21.371Z,30.80
2019-01-25T22:11:50.554Z,29.93
2019-01-25T22:14:19.721Z,30.60
2019-01-25T22:16:48.621Z,32.93
2019-01-25T22:19:17.723Z,32.63
2019-01-25T22:21:46.666Z,31.43
2019-01-25T22:24:15.532Z,31.10
2019-01-25T22:26:44.988Z,32.40
2019-01-25T22:29:13.762Z,30.57
2019-01-25T22:31:42.664Z,31.40
2019-01-25T22:34:11.396Z,31.80
2019-01-25T22:36:40.185Z,32.73
2019-01-25T22:39:08.884Z,34.20
2019-01-25T22:41:37.590Z,30.30
2019-01-25T22:44:06.082Z,32.43
2019-01-25T22:46:34.812Z,34.13
2019-01-25T22:49:03.646Z,29.77
2019-01-25T22:51:32.078Z,35.30
2019-01-25T22:54:00.588Z,32.50
2019-01-25T22:56:29.156Z,32.13
2019-01-25T22:58:57.587Z,32.43
2019-01-25T23:01:26.538Z,34.30
2019-01-25T23:04:15.705Z,32.33
2019-01-25T23:06:45.574Z,35.20
2019-01-25T23:09:20.076Z,34.60
2019-01-25T23:11:48.540Z,33.27
2019-01-25T23:14:17.041Z,34.53
2019-01-25T23:16:45.540Z,33.73
2019-01-25T23:19:13.979Z,34.37
2019-01-25T23:21:42.483Z,32.60
2019-01-25T23:24:11.109Z,34.43
2019-01-25T23:26:39.554Z,37.63
2019-01-25T23:29:08.057Z,32.97
2019-01-25T23:31:36.742Z,33.83
2019-01-25T23:34:05.226Z,33.93
2019-01-25T23:36:33.723Z,34.43
2019-01-25T23:39:02.364Z,35.53
2019-01-25T23:41:30.779Z,32.00
2019-01-25T23:43:59.217Z,36.20
2019-01-25T23:46:27.682Z,35.17
2019-01-25T23:48:56.094Z,37.67
2019-01-25T23:51:24.530Z,34.20
2019-01-25T23:53:52.982Z,32.97
2019-01-25T23:56:21.419Z,33.77
2019-01-25T23:58:49.844Z,33.57
